PTAO2: Poteau River, Poteau, OK

                                SHEF ID:       PTAO2     Poteau River at Poteau, OK
STATION TYPE:
Regulating: Stage = 20.00, Flow = 7395

PRECIP STAGE RIV-FLOW VOLTAGE BAT-LOAD
in ft cfs volt volt
Ccp-Rev Ccp-Rev Ccp-Rev Ccp-Rev Ccp-Rev
(America/Chicago)
07/05 00:00 0.00 16.80 5649 12.88 12.24
07/05 01:00 0.00 16.79 5645 12.86 12.24
07/05 02:00 0.00 16.77 5637 12.86 12.30
07/05 03:00 0.00 16.75 5628 12.85 12.27
07/05 04:00 0.00 16.78 5641 12.84 12.20
07/05 05:00 0.00 16.76 5633 12.82 12.26
07/05 06:00 0.00 16.76 5633 12.82 12.21
07/05 07:00 0.00 16.75 5628 12.95 12.23
07/05 08:00 0.00 16.73 5620 13.91 12.99
07/05 09:00 0.00 16.73 5620 13.66 12.82
07/05 10:00 0.00 16.72 5616 13.16 12.51
07/05 11:00 0.00 16.67 5596 13.07 12.42
07/05 12:00 0.00 16.69 5604 13.10 12.43
07/05 13:00 0.00 16.67 5596 13.05 12.42
07/05 14:00 0.00 16.65 5588 13.05 12.50
07/05 15:00 0.00 16.64 5584 13.03 12.31
07/05 16:00 0.00 16.63 5580 12.96 12.33
07/05 17:00 0.00 16.63 5580 12.96 12.27
07/05 18:00 0.00 16.59 5563 12.94 12.25
07/05 19:00 0.00 16.60 5567 13.07 12.40
07/05 20:00 0.00 16.59 5563 13.13 12.57
07/05 21:00 0.00 16.59 5563 12.94 12.48
07/05 22:00 0.00 16.57 5555 12.88 12.34
07/05 23:00 0.00 16.58 5559 12.86 12.33
Data processed at Sun 06Jul2025 04:48 GMT

Parsing this webpage?

Checkout our new Data API! CWMSDataAPI (CDA)

Timeseries IDs (TSIDs)

TSIDs used from left to right in the data table
POTE.Precip-Inc.Total.1Hour.1Hour.Ccp-Rev
POTE.Stage.Inst.1Hour.0.Ccp-Rev
POTE.Flow.Inst.1Hour.0.Ccp-Rev
POTE.Volt-Battery.Inst.1Hour.0.Ccp-Rev
POTE.Volt-Battery Load.Inst.1Hour.0.Ccp-Rev

                            

All information presented herein is the property of the government of the United States of America and may be revised or deleted at any time without prior notice. Dissemination of this information without the expressed written consent of the Public Affairs Office, Tulsa District U.S. Army Corps of Engineers is strictly prohibited. These data are gathered electronically and, as presented, have NOT undergone any form of quality control. These data are NOT guaranteed to be valid or correct.